sensor_id;sensor_type;location;lat;lon;timestamp;temperature;humidity
16283;DHT22;8249;48.708;9.030;2023-03-01T00:01:08;-1.10;99.90
16283;DHT22;8249;48.708;9.030;2023-03-01T00:03:35;-1.10;99.90
16283;DHT22;8249;48.708;9.030;2023-03-01T00:06:04;-1.10;99.90
16283;DHT22;8249;48.708;9.030;2023-03-01T00:08:31;-1.10;99.90
16283;DHT22;8249;48.708;9.030;2023-03-01T00:11:04;-1.10;99.90
16283;DHT22;8249;48.708;9.030;2023-03-01T00:13:34;-1.10;99.90
16283;DHT22;8249;48.708;9.030;2023-03-01T00:16:02;-1.10;99.90
16283;DHT22;8249;48.708;9.030;2023-03-01T00:18:29;-1.10;99.90
16283;DHT22;8249;48.708;9.030;2023-03-01T00:20:56;-1.20;99.90
16283;DHT22;8249;48.708;9.030;2023-03-01T00:23:23;-1.20;99.90
16283;DHT22;8249;48.708;9.030;2023-03-01T00:25:51;-1.20;99.90
16283;DHT22;8249;48.708;9.030;2023-03-01T00:28:18;-1.20;99.90
16283;DHT22;8249;48.708;9.030;2023-03-01T00:30:47;-1.20;99.90
16283;DHT22;8249;48.708;9.030;2023-03-01T00:33:14;-1.30;99.90
16283;DHT22;8249;48.708;9.030;2023-03-01T00:35:41;-1.30;99.90
16283;DHT22;8249;48.708;9.030;2023-03-01T00:38:08;-1.40;99.90
16283;DHT22;8249;48.708;9.030;2023-03-01T00:40:36;-1.40;99.90
16283;DHT22;8249;48.708;9.030;2023-03-01T00:43:03;-1.50;99.90
16283;DHT22;8249;48.708;9.030;2023-03-01T00:45:31;-1.50;99.90
16283;DHT22;8249;48.708;9.030;2023-03-01T00:48:00;-1.50;99.90
16283;DHT22;8249;48.708;9.030;2023-03-01T00:50:28;-1.60;99.90
16283;DHT22;8249;48.708;9.030;2023-03-01T00:52:55;-1.60;99.90
16283;DHT22;8249;48.708;9.030;2023-03-01T00:55:22;-1.60;99.90
16283;DHT22;8249;48.708;9.030;2023-03-01T00:57:49;-1.60;99.90
16283;DHT22;8249;48.708;9.030;2023-03-01T01:00:18;-1.60;99.90
16283;DHT22;8249;48.708;9.030;2023-03-01T01:02:47;-1.70;99.90
16283;DHT22;8249;48.708;9.030;2023-03-01T01:05:15;-1.50;99.90
16283;DHT22;8249;48.708;9.030;2023-03-01T01:07:47;-1.60;99.90
16283;DHT22;8249;48.708;9.030;2023-03-01T01:10:14;-1.60;99.90
16283;DHT22;8249;48.708;9.030;2023-03-01T01:12:46;-1.50;99.90
16283;DHT22;8249;48.708;9.030;2023-03-01T01:15:13;-1.50;99.90
16283;DHT22;8249;48.708;9.030;2023-03-01T01:17:42;-1.50;99.90
16283;DHT22;8249;48.708;9.030;2023-03-01T01:20:11;-1.60;99.90
16283;DHT22;8249;48.708;9.030;2023-03-01T01:22:39;-1.60;99.90
16283;DHT22;8249;48.708;9.030;2023-03-01T01:25:07;-1.70;99.90
16283;DHT22;8249;48.708;9.030;2023-03-01T01:27:34;-1.70;99.90
16283;DHT22;8249;48.708;9.030;2023-03-01T01:30:01;-1.70;99.90
16283;DHT22;8249;48.708;9.030;2023-03-01T01:32:29;-1.70;99.90
16283;DHT22;8249;48.708;9.030;2023-03-01T01:34:56;-1.60;99.90
16283;DHT22;8249;48.708;9.030;2023-03-01T01:37:22;-1.60;99.90
16283;DHT22;8249;48.708;9.030;2023-03-01T01:39:58;-1.60;99.90
16283;DHT22;8249;48.708;9.030;2023-03-01T01:42:26;-1.50;99.90
16283;DHT22;8249;48.708;9.030;2023-03-01T01:48:00;-1.50;99.90
16283;DHT22;8249;48.708;9.030;2023-03-01T01:50:30;-1.50;99.90
16283;DHT22;8249;48.708;9.030;2023-03-01T01:53:07;-1.50;99.90
16283;DHT22;8249;48.708;9.030;2023-03-01T01:55:39;-1.50;99.90
16283;DHT22;8249;48.708;9.030;2023-03-01T01:58:09;-1.50;99.90
16283;DHT22;8249;48.708;9.030;2023-03-01T02:00:37;-1.60;99.90
16283;DHT22;8249;48.708;9.030;2023-03-01T02:03:08;-1.50;99.90
16283;DHT22;8249;48.708;9.030;2023-03-01T02:05:39;-1.60;99.90
16283;DHT22;8249;48.708;9.030;2023-03-01T02:08:11;-1.60;99.90
16283;DHT22;8249;48.708;9.030;2023-03-01T02:10:40;-1.60;99.90
16283;DHT22;8249;48.708;9.030;2023-03-01T02:13:09;-1.60;99.90
16283;DHT22;8249;48.708;9.030;2023-03-01T02:15:38;-1.60;99.90
16283;DHT22;8249;48.708;9.030;2023-03-01T02:18:07;-1.50;99.90
16283;DHT22;8249;48.708;9.030;2023-03-01T02:20:40;-1.50;99.90
16283;DHT22;8249;48.708;9.030;2023-03-01T02:23:12;-1.40;99.90
16283;DHT22;8249;48.708;9.030;2023-03-01T02:25:45;-1.30;99.90
16283;DHT22;8249;48.708;9.030;2023-03-01T02:28:24;-1.20;99.90
16283;DHT22;8249;48.708;9.030;2023-03-01T02:30:53;-1.10;99.90
16283;DHT22;8249;48.708;9.030;2023-03-01T02:33:39;-1.00;99.90
16283;DHT22;8249;48.708;9.030;2023-03-01T02:36:09;-1.00;99.90
16283;DHT22;8249;48.708;9.030;2023-03-01T02:38:39;-0.90;99.90
16283;DHT22;8249;48.708;9.030;2023-03-01T02:41:07;-0.90;99.90
16283;DHT22;8249;48.708;9.030;2023-03-01T02:43:37;-0.90;99.90
16283;DHT22;8249;48.708;9.030;2023-03-01T02:46:06;-0.80;99.90
16283;DHT22;8249;48.708;9.030;2023-03-01T02:48:42;-0.80;99.90
16283;DHT22;8249;48.708;9.030;2023-03-01T02:51:18;-0.80;99.90
16283;DHT22;8249;48.708;9.030;2023-03-01T02:53:58;-0.80;99.90
16283;DHT22;8249;48.708;9.030;2023-03-01T02:56:29;-0.70;99.90
16283;DHT22;8249;48.708;9.030;2023-03-01T02:58:58;-0.70;99.90
16283;DHT22;8249;48.708;9.030;2023-03-01T03:01:29;-0.70;99.90
16283;DHT22;8249;48.708;9.030;2023-03-01T03:04:05;-0.70;99.90
16283;DHT22;8249;48.708;9.030;2023-03-01T03:06:32;-0.70;99.90
16283;DHT22;8249;48.708;9.030;2023-03-01T03:09:00;-0.70;99.90
16283;DHT22;8249;48.708;9.030;2023-03-01T03:11:27;-0.70;99.90
16283;DHT22;8249;48.708;9.030;2023-03-01T03:13:56;-0.60;99.90
16283;DHT22;8249;48.708;9.030;2023-03-01T03:16:25;-0.60;99.90
16283;DHT22;8249;48.708;9.030;2023-03-01T03:18:52;-0.70;99.90
16283;DHT22;8249;48.708;9.030;2023-03-01T03:21:19;-0.60;99.90
16283;DHT22;8249;48.708;9.030;2023-03-01T03:23:46;-0.60;99.90
16283;DHT22;8249;48.708;9.030;2023-03-01T03:26:13;-0.60;99.90
16283;DHT22;8249;48.708;9.030;2023-03-01T03:28:40;-0.60;99.90
16283;DHT22;8249;48.708;9.030;2023-03-01T03:31:07;-0.60;99.90
16283;DHT22;8249;48.708;9.030;2023-03-01T03:33:36;-0.60;99.90
16283;DHT22;8249;48.708;9.030;2023-03-01T03:36:04;-0.50;99.90
16283;DHT22;8249;48.708;9.030;2023-03-01T03:38:31;-0.50;99.90
16283;DHT22;8249;48.708;9.030;2023-03-01T03:41:03;-0.50;99.90
16283;DHT22;8249;48.708;9.030;2023-03-01T03:43:32;-0.50;99.90
16283;DHT22;8249;48.708;9.030;2023-03-01T03:46:00;-0.50;99.90
16283;DHT22;8249;48.708;9.030;2023-03-01T03:48:32;-0.50;99.90
16283;DHT22;8249;48.708;9.030;2023-03-01T03:51:01;-0.50;99.90
16283;DHT22;8249;48.708;9.030;2023-03-01T03:53:31;-0.50;99.90
16283;DHT22;8249;48.708;9.030;2023-03-01T03:55:58;-0.50;99.90
16283;DHT22;8249;48.708;9.030;2023-03-01T03:58:26;-0.40;99.90
16283;DHT22;8249;48.708;9.030;2023-03-01T04:00:54;-0.40;99.90
16283;DHT22;8249;48.708;9.030;2023-03-01T04:03:23;-0.40;99.90
16283;DHT22;8249;48.708;9.030;2023-03-01T04:05:51;-0.40;99.90
16283;DHT22;8249;48.708;9.030;2023-03-01T04:08:20;-0.40;99.90
16283;DHT22;8249;48.708;9.030;2023-03-01T04:10:49;-0.40;99.90
16283;DHT22;8249;48.708;9.030;2023-03-01T04:13:18;-0.40;99.90
16283;DHT22;8249;48.708;9.030;2023-03-01T04:15:45;-0.40;99.90
16283;DHT22;8249;48.708;9.030;2023-03-01T04:18:13;-0.40;99.90
16283;DHT22;8249;48.708;9.030;2023-03-01T04:20:42;-0.40;99.90
16283;DHT22;8249;48.708;9.030;2023-03-01T04:23:11;-0.40;99.90
16283;DHT22;8249;48.708;9.030;2023-03-01T04:25:46;-0.40;99.90
16283;DHT22;8249;48.708;9.030;2023-03-01T04:28:15;-0.40;99.90
16283;DHT22;8249;48.708;9.030;2023-03-01T04:30:41;-0.40;99.90
16283;DHT22;8249;48.708;9.030;2023-03-01T04:33:10;-0.40;99.90
16283;DHT22;8249;48.708;9.030;2023-03-01T04:35:37;-0.30;99.90
16283;DHT22;8249;48.708;9.030;2023-03-01T04:38:05;-0.30;99.90
16283;DHT22;8249;48.708;9.030;2023-03-01T04:40:32;-0.30;99.90
16283;DHT22;8249;48.708;9.030;2023-03-01T04:43:00;-0.30;99.90
16283;DHT22;8249;48.708;9.030;2023-03-01T04:45:27;-0.30;99.90
16283;DHT22;8249;48.708;9.030;2023-03-01T04:47:54;-0.30;99.90
16283;DHT22;8249;48.708;9.030;2023-03-01T04:50:23;-0.30;99.90
16283;DHT22;8249;48.708;9.030;2023-03-01T04:52:51;-0.30;99.90
16283;DHT22;8249;48.708;9.030;2023-03-01T04:55:19;-0.20;99.90
16283;DHT22;8249;48.708;9.030;2023-03-01T04:57:46;-0.20;99.90
16283;DHT22;8249;48.708;9.030;2023-03-01T05:00:15;-0.20;99.90
16283;DHT22;8249;48.708;9.030;2023-03-01T05:02:50;-0.20;99.90
16283;DHT22;8249;48.708;9.030;2023-03-01T05:05:26;-0.20;99.90
16283;DHT22;8249;48.708;9.030;2023-03-01T05:07:54;-0.20;99.90
16283;DHT22;8249;48.708;9.030;2023-03-01T05:10:22;-0.20;99.90
16283;DHT22;8249;48.708;9.030;2023-03-01T05:12:49;-0.20;99.90
16283;DHT22;8249;48.708;9.030;2023-03-01T05:15:19;-0.20;99.90
16283;DHT22;8249;48.708;9.030;2023-03-01T05:17:47;-0.10;99.90
16283;DHT22;8249;48.708;9.030;2023-03-01T05:20:14;-0.20;99.90
16283;DHT22;8249;48.708;9.030;2023-03-01T05:22:41;-0.10;99.90
16283;DHT22;8249;48.708;9.030;2023-03-01T05:25:09;-0.10;99.90
16283;DHT22;8249;48.708;9.030;2023-03-01T05:27:36;-0.10;99.90
16283;DHT22;8249;48.708;9.030;2023-03-01T05:30:04;-0.10;99.90
16283;DHT22;8249;48.708;9.030;2023-03-01T05:32:41;-0.10;99.90
16283;DHT22;8249;48.708;9.030;2023-03-01T05:35:11;-0.10;99.90
16283;DHT22;8249;48.708;9.030;2023-03-01T05:37:41;-0.10;99.90
16283;DHT22;8249;48.708;9.030;2023-03-01T05:40:09;0.00;99.90
16283;DHT22;8249;48.708;9.030;2023-03-01T05:42:43;0.10;99.90
16283;DHT22;8249;48.708;9.030;2023-03-01T05:45:11;0.20;99.90
16283;DHT22;8249;48.708;9.030;2023-03-01T05:47:41;0.30;99.90
16283;DHT22;8249;48.708;9.030;2023-03-01T05:50:11;0.30;99.90
16283;DHT22;8249;48.708;9.030;2023-03-01T05:52:39;0.30;99.90
16283;DHT22;8249;48.708;9.030;2023-03-01T05:55:07;0.40;99.90
16283;DHT22;8249;48.708;9.030;2023-03-01T05:57:34;0.50;99.90
16283;DHT22;8249;48.708;9.030;2023-03-01T06:00:01;0.60;99.90
16283;DHT22;8249;48.708;9.030;2023-03-01T06:02:38;0.60;99.90
16283;DHT22;8249;48.708;9.030;2023-03-01T06:05:09;0.50;99.90
16283;DHT22;8249;48.708;9.030;2023-03-01T06:07:36;0.60;99.90
16283;DHT22;8249;48.708;9.030;2023-03-01T06:10:06;0.50;99.90
16283;DHT22;8249;48.708;9.030;2023-03-01T06:12:34;0.50;99.90
16283;DHT22;8249;48.708;9.030;2023-03-01T06:15:01;0.40;99.90
16283;DHT22;8249;48.708;9.030;2023-03-01T06:17:30;0.40;99.90
16283;DHT22;8249;48.708;9.030;2023-03-01T06:19:57;0.30;99.90
16283;DHT22;8249;48.708;9.030;2023-03-01T06:22:26;0.30;99.90
16283;DHT22;8249;48.708;9.030;2023-03-01T06:24:54;0.30;99.90
16283;DHT22;8249;48.708;9.030;2023-03-01T06:27:21;0.30;99.90
16283;DHT22;8249;48.708;9.030;2023-03-01T06:29:47;0.30;99.90
16283;DHT22;8249;48.708;9.030;2023-03-01T06:32:15;0.40;99.90
16283;DHT22;8249;48.708;9.030;2023-03-01T06:34:42;0.30;99.90
16283;DHT22;8249;48.708;9.030;2023-03-01T06:37:08;0.30;99.90
16283;DHT22;8249;48.708;9.030;2023-03-01T06:39:37;0.30;99.90
16283;DHT22;8249;48.708;9.030;2023-03-01T06:42:04;0.40;99.90
16283;DHT22;8249;48.708;9.030;2023-03-01T06:44:31;0.30;99.90
16283;DHT22;8249;48.708;9.030;2023-03-01T06:46:58;0.40;99.90
16283;DHT22;8249;48.708;9.030;2023-03-01T06:49:25;0.40;99.90
16283;DHT22;8249;48.708;9.030;2023-03-01T06:51:52;0.40;99.90
16283;DHT22;8249;48.708;9.030;2023-03-01T06:54:19;0.40;99.90
16283;DHT22;8249;48.708;9.030;2023-03-01T06:56:49;0.40;99.90
16283;DHT22;8249;48.708;9.030;2023-03-01T06:59:18;0.50;99.90
16283;DHT22;8249;48.708;9.030;2023-03-01T07:01:45;0.50;99.90
16283;DHT22;8249;48.708;9.030;2023-03-01T07:04:13;0.60;99.90
16283;DHT22;8249;48.708;9.030;2023-03-01T07:06:40;0.50;99.90
16283;DHT22;8249;48.708;9.030;2023-03-01T07:09:07;0.70;99.90
16283;DHT22;8249;48.708;9.030;2023-03-01T07:11:34;0.80;99.90
16283;DHT22;8249;48.708;9.030;2023-03-01T07:14:02;0.90;99.90
16283;DHT22;8249;48.708;9.030;2023-03-01T07:16:29;0.90;99.90
16283;DHT22;8249;48.708;9.030;2023-03-01T07:18:56;1.00;99.90
16283;DHT22;8249;48.708;9.030;2023-03-01T07:21:23;0.90;99.90
16283;DHT22;8249;48.708;9.030;2023-03-01T07:23:50;0.90;99.90
16283;DHT22;8249;48.708;9.030;2023-03-01T07:26:17;0.90;99.90
16283;DHT22;8249;48.708;9.030;2023-03-01T07:28:43;0.90;99.90
16283;DHT22;8249;48.708;9.030;2023-03-01T07:31:12;1.00;99.90
16283;DHT22;8249;48.708;9.030;2023-03-01T07:33:39;1.10;99.90
16283;DHT22;8249;48.708;9.030;2023-03-01T07:36:06;1.10;99.90
16283;DHT22;8249;48.708;9.030;2023-03-01T07:38:34;1.20;99.90
16283;DHT22;8249;48.708;9.030;2023-03-01T07:41:02;1.20;99.90
16283;DHT22;8249;48.708;9.030;2023-03-01T07:43:31;1.20;99.90
16283;DHT22;8249;48.708;9.030;2023-03-01T07:45:59;1.30;99.90
16283;DHT22;8249;48.708;9.030;2023-03-01T07:48:28;1.50;99.90
16283;DHT22;8249;48.708;9.030;2023-03-01T07:50:58;1.70;99.90
16283;DHT22;8249;48.708;9.030;2023-03-01T07:53:25;1.80;99.90
16283;DHT22;8249;48.708;9.030;2023-03-01T07:56:00;2.00;99.90
16283;DHT22;8249;48.708;9.030;2023-03-01T07:58:27;2.20;99.90
16283;DHT22;8249;48.708;9.030;2023-03-01T08:00:55;2.40;99.90
16283;DHT22;8249;48.708;9.030;2023-03-01T08:03:22;2.70;99.90
16283;DHT22;8249;48.708;9.030;2023-03-01T08:05:50;2.80;99.90
16283;DHT22;8249;48.708;9.030;2023-03-01T08:08:17;3.00;99.90
16283;DHT22;8249;48.708;9.030;2023-03-01T08:10:44;3.40;99.90
16283;DHT22;8249;48.708;9.030;2023-03-01T08:13:11;3.60;99.90
16283;DHT22;8249;48.708;9.030;2023-03-01T08:15:38;3.80;99.90
16283;DHT22;8249;48.708;9.030;2023-03-01T08:18:05;4.30;99.90
16283;DHT22;8249;48.708;9.030;2023-03-01T08:20:33;4.40;99.90
16283;DHT22;8249;48.708;9.030;2023-03-01T08:23:01;4.60;99.90
16283;DHT22;8249;48.708;9.030;2023-03-01T08:25:28;4.70;99.90
16283;DHT22;8249;48.708;9.030;2023-03-01T08:27:55;4.80;99.90
16283;DHT22;8249;48.708;9.030;2023-03-01T08:30:22;5.00;99.90
16283;DHT22;8249;48.708;9.030;2023-03-01T08:32:50;5.20;99.90
16283;DHT22;8249;48.708;9.030;2023-03-01T08:35:17;5.60;99.90
16283;DHT22;8249;48.708;9.030;2023-03-01T08:37:44;5.80;99.90
16283;DHT22;8249;48.708;9.030;2023-03-01T08:40:13;6.00;99.90
16283;DHT22;8249;48.708;9.030;2023-03-01T08:42:40;6.50;99.90
16283;DHT22;8249;48.708;9.030;2023-03-01T08:45:09;6.50;99.90
16283;DHT22;8249;48.708;9.030;2023-03-01T08:47:37;6.60;99.90
16283;DHT22;8249;48.708;9.030;2023-03-01T08:50:05;6.80;99.90
16283;DHT22;8249;48.708;9.030;2023-03-01T08:52:32;7.20;99.90
16283;DHT22;8249;48.708;9.030;2023-03-01T08:54:59;7.60;99.90
16283;DHT22;8249;48.708;9.030;2023-03-01T08:57:28;7.90;99.90
16283;DHT22;8249;48.708;9.030;2023-03-01T08:59:56;8.60;99.90
16283;DHT22;8249;48.708;9.030;2023-03-01T09:02:23;8.70;99.90
16283;DHT22;8249;48.708;9.030;2023-03-01T09:04:50;8.90;99.90
16283;DHT22;8249;48.708;9.030;2023-03-01T09:07:17;9.20;99.90
16283;DHT22;8249;48.708;9.030;2023-03-01T09:09:44;9.40;99.90
16283;DHT22;8249;48.708;9.030;2023-03-01T09:12:10;9.40;99.90
16283;DHT22;8249;48.708;9.030;2023-03-01T09:14:39;9.20;99.90
16283;DHT22;8249;48.708;9.030;2023-03-01T09:17:06;8.60;99.90
16283;DHT22;8249;48.708;9.030;2023-03-01T09:19:34;8.10;99.90
16283;DHT22;8249;48.708;9.030;2023-03-01T09:22:02;8.30;99.90
16283;DHT22;8249;48.708;9.030;2023-03-01T09:24:29;8.20;99.90
16283;DHT22;8249;48.708;9.030;2023-03-01T09:26:57;8.50;99.90
16283;DHT22;8249;48.708;9.030;2023-03-01T09:29:24;8.80;99.90
16283;DHT22;8249;48.708;9.030;2023-03-01T09:31:53;9.10;99.90
16283;DHT22;8249;48.708;9.030;2023-03-01T09:34:21;9.30;99.30
16283;DHT22;8249;48.708;9.030;2023-03-01T09:36:49;9.10;99.80
16283;DHT22;8249;48.708;9.030;2023-03-01T09:39:16;9.00;99.00
16283;DHT22;8249;48.708;9.030;2023-03-01T09:41:47;9.40;99.10
16283;DHT22;8249;48.708;9.030;2023-03-01T09:44:23;10.10;98.90
16283;DHT22;8249;48.708;9.030;2023-03-01T09:46:55;10.20;97.80
16283;DHT22;8249;48.708;9.030;2023-03-01T09:49:25;10.20;97.40
16283;DHT22;8249;48.708;9.030;2023-03-01T09:51:57;10.70;97.40
16283;DHT22;8249;48.708;9.030;2023-03-01T09:54:25;10.80;96.80
16283;DHT22;8249;48.708;9.030;2023-03-01T09:57:01;11.00;95.90
16283;DHT22;8249;48.708;9.030;2023-03-01T09:59:37;11.10;95.50
16283;DHT22;8249;48.708;9.030;2023-03-01T10:02:21;11.20;95.80
16283;DHT22;8249;48.708;9.030;2023-03-01T10:04:51;11.30;95.10
16283;DHT22;8249;48.708;9.030;2023-03-01T10:07:30;11.60;95.00
16283;DHT22;8249;48.708;9.030;2023-03-01T10:09:59;11.80;93.50
16283;DHT22;8249;48.708;9.030;2023-03-01T10:12:34;11.90;93.00
16283;DHT22;8249;48.708;9.030;2023-03-01T10:15:06;12.40;92.80
16283;DHT22;8249;48.708;9.030;2023-03-01T10:17:39;12.40;92.20
16283;DHT22;8249;48.708;9.030;2023-03-01T10:20:19;12.60;91.90
16283;DHT22;8249;48.708;9.030;2023-03-01T10:22:48;12.60;91.90
16283;DHT22;8249;48.708;9.030;2023-03-01T10:25:29;12.70;91.30
16283;DHT22;8249;48.708;9.030;2023-03-01T10:28:02;12.90;90.90
16283;DHT22;8249;48.708;9.030;2023-03-01T10:30:35;13.20;90.50
16283;DHT22;8249;48.708;9.030;2023-03-01T10:33:15;13.50;90.00
16283;DHT22;8249;48.708;9.030;2023-03-01T10:35:43;13.50;88.50
16283;DHT22;8249;48.708;9.030;2023-03-01T10:38:11;13.50;89.30
16283;DHT22;8249;48.708;9.030;2023-03-01T10:40:51;13.30;90.00
16283;DHT22;8249;48.708;9.030;2023-03-01T10:43:20;13.50;90.00
16283;DHT22;8249;48.708;9.030;2023-03-01T10:45:47;13.40;88.30
16283;DHT22;8249;48.708;9.030;2023-03-01T10:48:18;13.60;88.70
16283;DHT22;8249;48.708;9.030;2023-03-01T10:50:51;13.90;86.60
16283;DHT22;8249;48.708;9.030;2023-03-01T10:53:26;14.40;85.40
16283;DHT22;8249;48.708;9.030;2023-03-01T10:55:59;14.90;83.70
16283;DHT22;8249;48.708;9.030;2023-03-01T10:58:27;15.20;83.30
16283;DHT22;8249;48.708;9.030;2023-03-01T11:00:56;15.00;82.50
16283;DHT22;8249;48.708;9.030;2023-03-01T11:03:27;15.00;81.60
16283;DHT22;8249;48.708;9.030;2023-03-01T11:06:20;15.10;81.00
16283;DHT22;8249;48.708;9.030;2023-03-01T11:08:48;15.10;81.30
16283;DHT22;8249;48.708;9.030;2023-03-01T11:11:30;15.40;79.40
16283;DHT22;8249;48.708;9.030;2023-03-01T11:13:59;15.30;79.50
16283;DHT22;8249;48.708;9.030;2023-03-01T11:16:32;15.10;80.30
16283;DHT22;8249;48.708;9.030;2023-03-01T11:19:18;15.40;80.10
16283;DHT22;8249;48.708;9.030;2023-03-01T11:21:52;15.70;78.40
16283;DHT22;8249;48.708;9.030;2023-03-01T11:24:26;15.80;76.00
16283;DHT22;8249;48.708;9.030;2023-03-01T11:26:55;15.70;76.30
16283;DHT22;8249;48.708;9.030;2023-03-01T11:29:27;15.50;78.10
16283;DHT22;8249;48.708;9.030;2023-03-01T11:32:01;15.80;75.70
16283;DHT22;8249;48.708;9.030;2023-03-01T11:34:39;16.00;76.50
16283;DHT22;8249;48.708;9.030;2023-03-01T11:37:19;15.80;76.90
16283;DHT22;8249;48.708;9.030;2023-03-01T11:39:55;15.80;76.70
16283;DHT22;8249;48.708;9.030;2023-03-01T11:42:34;15.80;76.20
16283;DHT22;8249;48.708;9.030;2023-03-01T11:45:08;15.90;76.50
16283;DHT22;8249;48.708;9.030;2023-03-01T11:47:57;16.60;75.00
16283;DHT22;8249;48.708;9.030;2023-03-01T11:50:35;16.90;73.50
16283;DHT22;8249;48.708;9.030;2023-03-01T11:53:21;16.70;74.40
16283;DHT22;8249;48.708;9.030;2023-03-01T11:56:02;16.90;72.80
16283;DHT22;8249;48.708;9.030;2023-03-01T11:58:41;17.10;72.30
16283;DHT22;8249;48.708;9.030;2023-03-01T12:01:20;16.60;71.50
16283;DHT22;8249;48.708;9.030;2023-03-01T12:06:59;17.20;71.50
16283;DHT22;8249;48.708;9.030;2023-03-01T12:09:44;17.00;72.00
16283;DHT22;8249;48.708;9.030;2023-03-01T12:12:31;16.80;72.50
16283;DHT22;8249;48.708;9.030;2023-03-01T12:15:26;16.90;71.10
16283;DHT22;8249;48.708;9.030;2023-03-01T12:18:21;17.10;71.90
16283;DHT22;8249;48.708;9.030;2023-03-01T12:20:56;17.50;69.50
16283;DHT22;8249;48.708;9.030;2023-03-01T12:23:44;17.30;68.70
16283;DHT22;8249;48.708;9.030;2023-03-01T12:26:20;17.60;68.20
16283;DHT22;8249;48.708;9.030;2023-03-01T12:29:06;17.20;69.30
16283;DHT22;8249;48.708;9.030;2023-03-01T12:32:04;17.20;69.90
16283;DHT22;8249;48.708;9.030;2023-03-01T12:35:04;17.10;69.70
16283;DHT22;8249;48.708;9.030;2023-03-01T12:37:39;17.50;68.80
16283;DHT22;8249;48.708;9.030;2023-03-01T12:40:33;16.90;69.10
16283;DHT22;8249;48.708;9.030;2023-03-01T12:43:11;16.80;69.60
16283;DHT22;8249;48.708;9.030;2023-03-01T12:45:58;16.90;68.70
16283;DHT22;8249;48.708;9.030;2023-03-01T12:48:37;16.90;69.40
16283;DHT22;8249;48.708;9.030;2023-03-01T12:51:10;17.10;69.70
16283;DHT22;8249;48.708;9.030;2023-03-01T12:53:41;17.70;68.90
16283;DHT22;8249;48.708;9.030;2023-03-01T12:56:13;17.40;69.20
16283;DHT22;8249;48.708;9.030;2023-03-01T12:58:46;17.30;69.10
16283;DHT22;8249;48.708;9.030;2023-03-01T13:01:21;17.60;68.10
16283;DHT22;8249;48.708;9.030;2023-03-01T13:07:06;18.10;67.80
16283;DHT22;8249;48.708;9.030;2023-03-01T13:09:39;18.40;67.00
16283;DHT22;8249;48.708;9.030;2023-03-01T13:18:04;18.20;66.70
16283;DHT22;8249;48.708;9.030;2023-03-01T13:20:52;18.20;66.80
16283;DHT22;8249;48.708;9.030;2023-03-01T13:23:31;17.90;66.60
16283;DHT22;8249;48.708;9.030;2023-03-01T13:26:13;18.30;66.90
16283;DHT22;8249;48.708;9.030;2023-03-01T13:28:53;18.30;65.80
16283;DHT22;8249;48.708;9.030;2023-03-01T13:34:58;17.80;68.50
16283;DHT22;8249;48.708;9.030;2023-03-01T13:37:34;18.30;66.00
16283;DHT22;8249;48.708;9.030;2023-03-01T13:42:47;18.70;67.10
16283;DHT22;8249;48.708;9.030;2023-03-01T13:45:19;19.20;64.30
16283;DHT22;8249;48.708;9.030;2023-03-01T13:47:50;18.80;65.70
16283;DHT22;8249;48.708;9.030;2023-03-01T13:50:23;18.90;64.60
16283;DHT22;8249;48.708;9.030;2023-03-01T13:52:54;18.80;65.40
16283;DHT22;8249;48.708;9.030;2023-03-01T13:55:30;19.10;64.20
16283;DHT22;8249;48.708;9.030;2023-03-01T13:58:04;18.30;66.50
16283;DHT22;8249;48.708;9.030;2023-03-01T14:00:35;18.00;66.90
16283;DHT22;8249;48.708;9.030;2023-03-01T14:03:14;18.30;66.30
16283;DHT22;8249;48.708;9.030;2023-03-01T14:05:57;18.20;67.70
16283;DHT22;8249;48.708;9.030;2023-03-01T14:08:26;18.30;66.80
16283;DHT22;8249;48.708;9.030;2023-03-01T14:11:06;18.10;66.60
16283;DHT22;8249;48.708;9.030;2023-03-01T14:13:48;17.50;68.40
16283;DHT22;8249;48.708;9.030;2023-03-01T14:16:27;17.90;66.10
16283;DHT22;8249;48.708;9.030;2023-03-01T14:19:05;17.80;67.10
16283;DHT22;8249;48.708;9.030;2023-03-01T14:21:37;17.80;68.00
16283;DHT22;8249;48.708;9.030;2023-03-01T14:24:05;17.50;68.60
16283;DHT22;8249;48.708;9.030;2023-03-01T14:26:35;17.50;66.50
16283;DHT22;8249;48.708;9.030;2023-03-01T14:29:03;17.80;65.60
16283;DHT22;8249;48.708;9.030;2023-03-01T14:31:36;17.90;66.50
16283;DHT22;8249;48.708;9.030;2023-03-01T14:34:05;17.70;66.00
16283;DHT22;8249;48.708;9.030;2023-03-01T14:36:33;17.50;67.60
16283;DHT22;8249;48.708;9.030;2023-03-01T14:39:16;17.10;68.50
16283;DHT22;8249;48.708;9.030;2023-03-01T14:41:43;16.80;67.30
16283;DHT22;8249;48.708;9.030;2023-03-01T14:44:16;17.10;67.80
16283;DHT22;8249;48.708;9.030;2023-03-01T14:46:44;17.00;67.60
16283;DHT22;8249;48.708;9.030;2023-03-01T14:49:12;17.10;66.60
16283;DHT22;8249;48.708;9.030;2023-03-01T14:51:43;17.10;67.80
16283;DHT22;8249;48.708;9.030;2023-03-01T14:54:21;17.10;68.60
16283;DHT22;8249;48.708;9.030;2023-03-01T14:56:51;16.80;68.50
16283;DHT22;8249;48.708;9.030;2023-03-01T14:59:21;16.30;67.80
16283;DHT22;8249;48.708;9.030;2023-03-01T15:01:48;16.20;68.60
16283;DHT22;8249;48.708;9.030;2023-03-01T15:04:15;16.60;67.90
16283;DHT22;8249;48.708;9.030;2023-03-01T15:06:43;16.20;69.80
16283;DHT22;8249;48.708;9.030;2023-03-01T15:09:14;15.80;70.20
16283;DHT22;8249;48.708;9.030;2023-03-01T15:11:44;15.70;69.90
16283;DHT22;8249;48.708;9.030;2023-03-01T15:14:39;16.10;70.20
16283;DHT22;8249;48.708;9.030;2023-03-01T15:17:23;15.60;71.60
16283;DHT22;8249;48.708;9.030;2023-03-01T15:19:54;15.70;71.20
16283;DHT22;8249;48.708;9.030;2023-03-01T15:22:23;15.60;71.50
16283;DHT22;8249;48.708;9.030;2023-03-01T15:24:51;15.40;72.00
16283;DHT22;8249;48.708;9.030;2023-03-01T15:27:21;15.20;72.10
16283;DHT22;8249;48.708;9.030;2023-03-01T15:29:50;15.20;71.20
16283;DHT22;8249;48.708;9.030;2023-03-01T15:32:27;15.10;71.60
16283;DHT22;8249;48.708;9.030;2023-03-01T15:34:54;15.10;72.20
16283;DHT22;8249;48.708;9.030;2023-03-01T15:37:46;14.90;72.40
16283;DHT22;8249;48.708;9.030;2023-03-01T15:40:21;14.60;71.70
16283;DHT22;8249;48.708;9.030;2023-03-01T15:42:52;14.60;72.50
16283;DHT22;8249;48.708;9.030;2023-03-01T15:45:23;14.30;74.60
16283;DHT22;8249;48.708;9.030;2023-03-01T15:47:54;13.90;75.10
16283;DHT22;8249;48.708;9.030;2023-03-01T15:50:25;13.70;75.50
16283;DHT22;8249;48.708;9.030;2023-03-01T15:52:53;13.30;77.00
16283;DHT22;8249;48.708;9.030;2023-03-01T15:55:22;13.10;75.50
16283;DHT22;8249;48.708;9.030;2023-03-01T15:57:50;13.00;76.00
16283;DHT22;8249;48.708;9.030;2023-03-01T16:00:26;12.70;76.80
16283;DHT22;8249;48.708;9.030;2023-03-01T16:02:55;12.30;76.50
16283;DHT22;8249;48.708;9.030;2023-03-01T16:05:25;12.30;76.40
16283;DHT22;8249;48.708;9.030;2023-03-01T16:07:52;11.90;77.00
16283;DHT22;8249;48.708;9.030;2023-03-01T16:10:20;11.60;77.50
16283;DHT22;8249;48.708;9.030;2023-03-01T16:12:49;11.30;78.20
16283;DHT22;8249;48.708;9.030;2023-03-01T16:15:20;11.20;78.30
16283;DHT22;8249;48.708;9.030;2023-03-01T16:17:49;10.90;79.10
16283;DHT22;8249;48.708;9.030;2023-03-01T16:20:22;10.70;79.50
16283;DHT22;8249;48.708;9.030;2023-03-01T16:22:49;10.50;80.00
16283;DHT22;8249;48.708;9.030;2023-03-01T16:25:18;10.20;80.80
16283;DHT22;8249;48.708;9.030;2023-03-01T16:27:47;10.10;81.10
16283;DHT22;8249;48.708;9.030;2023-03-01T16:30:16;10.00;81.10
16283;DHT22;8249;48.708;9.030;2023-03-01T16:32:44;9.90;81.70
16283;DHT22;8249;48.708;9.030;2023-03-01T16:35:15;9.80;82.00